Time;durP1;ratioP1;P1;durP2;ratioP2;P2;SDS_P1;SDS_P2;PMS_P1;PMS_P2;Temp;Humidity;BMP_temperature;BMP_pressure;BME280_temperature;BME280_humidity;BME280_pressure;Samples;Min_cycle;Max_cycle;Signal;HPM_P1;HPM_P2
2021/12/10 00:02:05;;;;;;;;;;;;;;;-144.99;100.00;52713.09;5064385;28;20353;-60
2021/12/10 00:04:33;;;;;;;;;;;;;;;-144.99;100.00;52668.22;4714060;28;10000557;-60
2021/12/10 00:07:03;;;;;;;;;;;;;;;-144.99;100.00;52658.03;5074237;28;20365;-59
2021/12/10 00:09:32;;;;;;;;;;;;;;;-144.99;100.00;52649.88;5074838;28;20365;-63
2021/12/10 00:12:03;;;;;;;;;;;;;;;-144.99;100.00;52660.09;5067459;28;19976;-60
2021/12/10 00:14:31;;;;;;;;;;;;;;;-144.99;100.00;52684.53;5067386;28;20004;-60
2021/12/10 00:16:59;;;;;;;;;;;;;;;-144.99;100.00;52649.88;5067686;28;19983;-62
2021/12/10 00:19:32;;;;;;;;;;;;;;;-144.99;100.00;52664.16;5064180;28;20034;-61
2021/12/10 00:21:59;;;;;;;;;;;;;;;-144.99;100.00;52651.94;5108004;22;19991;-68
2021/12/10 00:24:29;;;;;;;;;;;;;;;-144.99;100.00;52682.50;5118080;27;20244;-65
2021/12/10 00:26:57;;;;;;;;;;;;;;;-144.99;100.00;52709.00;5108290;28;19976;-65
2021/12/10 00:29:26;;;;;;;;;;;;;;;-144.99;100.00;52660.09;5101504;28;20352;-66
2021/12/10 00:31:54;;;;;;;;;;;;;;;-144.99;100.00;52688.63;5110254;28;20429;-65
2021/12/10 00:34:24;;;;;;;;;;;;;;;-144.99;100.00;52662.13;5110722;28;19996;-66
2021/12/10 00:36:51;;;;;;;;;;;;;;;-144.99;100.00;52680.47;5108250;28;20067;-67
2021/12/10 00:39:19;;;;;;;;;;;;;;;-144.99;100.00;52674.34;5103780;28;20055;-66
2021/12/10 00:41:47;;;;;;;;;;;;;;;-144.99;100.00;52627.47;5107197;28;20066;-65
2021/12/10 00:44:14;;;;;;;;;;;;;;;-144.99;100.00;52721.22;5102118;28;19992;-66
2021/12/10 00:46:41;;;;;;;;;;;;;;;-144.99;100.00;52682.50;5105428;28;20081;-66
2021/12/10 00:49:08;;;;;;;;;;;;;;;-144.99;100.00;52674.34;5110311;28;19972;-66
2021/12/10 00:51:35;;;;;;;;;;;;;;;-144.99;100.00;52660.09;5108034;28;19976;-66
2021/12/10 00:54:02;;;;;;;;;;;;;;;-144.99;100.00;52688.63;5110149;28;19997;-66
2021/12/10 00:56:28;;;;;;;;;;;;;;;-144.99;100.00;52656.00;5104264;28;20161;-68
2021/12/10 00:58:54;;;;;;;;;;;;;;;-144.99;100.00;52676.38;5111234;28;19980;-69
2021/12/10 01:01:25;;;;;;;;;;;;;;;-144.99;100.00;52676.38;5111460;28;19980;-69
2021/12/10 01:03:54;;;;;;;;;;;;;;;-144.99;100.00;52704.94;5098104;28;20100;-67
2021/12/10 01:06:21;;;;;;;;;;;;;;;-144.99;100.00;52694.72;5098656;28;19992;-66
2021/12/10 01:08:49;;;;;;;;;;;;;;;-144.99;100.00;52660.09;5101548;28;19983;-66
2021/12/10 01:11:18;;;;;;;;;;;;;;;-144.99;100.00;52684.53;5109442;28;20012;-66
2021/12/10 01:13:47;;;;;;;;;;;;;;;-144.99;100.00;52690.66;5107159;28;19992;-66
2021/12/10 01:24:53;;;;;;;;;;;;;;;-144.99;100.00;52698.81;5145492;27;20453;-67
2021/12/10 01:27:28;;;;;;;;;;;;;;;-144.99;100.00;52651.94;5141241;27;19971;-66
2021/12/10 01:29:57;;;;;;;;;;;;;;;-144.99;100.00;52700.84;5150987;27;20351;-67
2021/12/10 01:32:25;;;;;;;;;;;;;;;-144.99;100.00;52686.59;5163619;27;19972;-68
2021/12/10 01:34:53;;;;;;;;;;;;;;;-144.99;100.00;52647.84;5164775;27;19988;-68
2021/12/10 01:37:20;;;;;;;;;;;;;;;-144.99;100.00;52684.53;5161777;27;20066;-66
2021/12/10 01:39:47;;;;;;;;;;;;;;;-144.99;100.00;52688.63;5158238;27;20001;-65
2021/12/10 01:42:18;;;;;;;;;;;;;;;-144.99;100.00;52680.47;5166372;27;20035;-65
2021/12/10 01:44:46;;;;;;;;;;;;;;;-144.99;100.00;52672.31;5153646;27;20192;-65
2021/12/10 01:47:15;;;;;;;;;;;;;;;-144.99;100.00;52656.00;5140783;27;19975;-65
2021/12/10 01:49:43;;;;;;;;;;;;;;;-144.99;100.00;52713.09;5149725;27;19964;-66
2021/12/10 01:52:11;;;;;;;;;;;;;;;-144.99;100.00;52668.22;5139587;27;19984;-65
2021/12/10 01:54:40;;;;;;;;;;;;;;;-144.99;100.00;52660.09;5148673;27;19988;-65
2021/12/10 01:57:07;;;;;;;;;;;;;;;-144.99;100.00;52651.94;5143375;27;19979;-65
2021/12/10 01:59:35;;;;;;;;;;;;;;;-144.99;100.00;52641.72;5149024;27;19984;-65
2021/12/10 02:02:03;;;;;;;;;;;;;;;-144.99;100.00;52668.22;5143193;27;20000;-65
2021/12/10 02:04:31;;;;;;;;;;;;;;;-144.99;100.00;52656.00;5148219;27;19995;-64
2021/12/10 02:06:58;;;;;;;;;;;;;;;-144.99;100.00;52651.94;5138212;27;19972;-64
2021/12/10 02:09:26;;;;;;;;;;;;;;;-144.99;100.00;52660.09;5146558;27;19972;-64
2021/12/10 02:11:52;;;;;;;;;;;;;;;-144.99;100.00;52651.94;5128859;27;19980;-65
2021/12/10 02:14:19;;;;;;;;;;;;;;;-144.99;100.00;52647.84;5136305;27;19988;-64
2021/12/10 02:16:46;;;;;;;;;;;;;;;-144.99;100.00;52651.94;5134391;27;19960;-65
2021/12/10 02:19:13;;;;;;;;;;;;;;;-144.99;100.00;52684.53;5142478;27;19999;-65
2021/12/10 02:21:41;;;;;;;;;;;;;;;-144.99;100.00;52682.50;5137700;27;20348;-64
2021/12/10 02:24:09;;;;;;;;;;;;;;;-144.99;100.00;52702.88;5140481;27;19996;-66
2021/12/10 02:26:37;;;;;;;;;;;;;;;-144.99;100.00;52664.16;5135599;27;19978;-64
2021/12/10 02:29:04;;;;;;;;;;;;;;;-144.99;100.00;52660.09;5129679;27;19987;-63
2021/12/10 02:31:31;;;;;;;;;;;;;;;-144.99;100.00;52623.38;5135472;27;20012;-67
2021/12/10 02:33:57;;;;;;;;;;;;;;;-144.99;100.00;52651.94;5122444;27;19988;-69
2021/12/10 02:36:24;;;;;;;;;;;;;;;-144.99;100.00;52643.78;5126042;27;19971;-68
2021/12/10 02:38:53;;;;;;;;;;;;;;;-144.99;100.00;52680.47;5134431;27;19995;-66
2021/12/10 02:41:21;;;;;;;;;;;;;;;-144.99;100.00;52692.69;5127434;27;20032;-65
2021/12/10 02:43:48;;;;;;;;;;;;;;;-144.99;100.00;52660.09;5134338;27;20050;-67
2021/12/10 02:46:15;;;;;;;;;;;;;;;-144.99;100.00;52721.22;5131408;27;19972;-67
2021/12/10 02:48:41;;;;;;;;;;;;;;;-144.99;100.00;52688.63;5133971;27;19976;-67
2021/12/10 02:51:08;;;;;;;;;;;;;;;-144.99;100.00;52688.63;5141454;27;19983;-67
2021/12/10 02:53:41;;;;;;;;;;;;;;;-144.99;100.00;52664.16;5150549;27;20046;-71
2021/12/10 02:56:09;;;;;;;;;;;;;;;-144.99;100.00;52704.94;5137565;27;20011;-69
2021/12/10 02:58:36;;;;;;;;;;;;;;;-144.99;100.00;52668.22;5144649;27;20056;-70
2021/12/10 03:01:04;;;;;;;;;;;;;;;-144.99;100.00;52656.00;5145213;27;20023;-69
2021/12/10 03:03:30;;;;;;;;;;;;;;;-144.99;100.00;52670.28;5141388;27;20027;-67
2021/12/10 03:05:58;;;;;;;;;;;;;;;-144.99;100.00;52664.16;5127692;27;19972;-67
2021/12/10 03:08:24;;;;;;;;;;;;;;;-144.99;100.00;52668.22;5127936;27;20081;-68
2021/12/10 03:10:51;;;;;;;;;;;;;;;-144.99;100.00;52678.44;5127202;27;19972;-67
2021/12/10 03:13:19;;;;;;;;;;;;;;;-144.99;100.00;52692.69;5131274;27;19991;-67
2021/12/10 03:15:45;;;;;;;;;;;;;;;-144.99;100.00;52651.94;5126795;27;20370;-67
2021/12/10 03:18:18;;;;;;;;;;;;;;;-144.99;100.00;52706.97;5128411;27;19992;-67
2021/12/10 03:20:44;;;;;;;;;;;;;;;-144.99;100.00;52692.69;5121924;27;20439;-67
2021/12/10 03:23:11;;;;;;;;;;;;;;;-144.99;100.00;52651.94;5130639;27;19988;-67
2021/12/10 03:25:38;;;;;;;;;;;;;;;-144.99;100.00;52656.00;5129884;27;19972;-67
2021/12/10 03:28:05;;;;;;;;;;;;;;;-144.99;100.00;52672.31;5126262;27;19972;-66
2021/12/10 03:30:37;;;;;;;;;;;;;;;-144.99;100.00;52656.00;5127772;27;19978;-67
2021/12/10 03:33:04;;;;;;;;;;;;;;;-144.99;100.00;52680.47;5126704;27;20450;-66
2021/12/10 03:35:32;;;;;;;;;;;;;;;-144.99;100.00;52649.88;5128093;27;20073;-67
2021/12/10 03:38:00;;;;;;;;;;;;;;;-144.99;100.00;52698.81;5124570;27;20107;-67
2021/12/10 03:40:27;;;;;;;;;;;;;;;-144.99;100.00;52656.00;5119102;27;19972;-67
2021/12/10 03:42:58;;;;;;;;;;;;;;;-144.99;100.00;52680.47;5123338;27;20429;-67
2021/12/10 03:45:25;;;;;;;;;;;;;;;-144.99;100.00;52725.31;5126498;27;20024;-69
2021/12/10 03:47:53;;;;;;;;;;;;;;;-144.99;100.00;52656.00;5126928;27;19972;-69
2021/12/10 03:50:22;;;;;;;;;;;;;;;-144.99;100.00;52692.69;5119795;27;20548;-69
2021/12/10 03:52:48;;;;;;;;;;;;;;;-144.99;100.00;52627.47;5121737;27;19972;-68
2021/12/10 03:55:15;;;;;;;;;;;;;;;-144.99;100.00;52653.97;5132334;27;19982;-68
2021/12/10 03:57:41;;;;;;;;;;;;;;;-144.99;100.00;52680.47;5125091;27;20043;-69
2021/12/10 04:00:09;;;;;;;;;;;;;;;-144.99;100.00;52660.09;5124481;27;19972;-69
2021/12/10 04:02:35;;;;;;;;;;;;;;;-144.99;100.00;52680.47;5123889;27;20063;-69
2021/12/10 04:05:04;;;;;;;;;;;;;;;-144.99;100.00;52700.84;5123343;27;19992;-66
2021/12/10 04:07:30;;;;;;;;;;;;;;;-144.99;100.00;52668.22;5125757;27;19979;-65
2021/12/10 04:09:56;;;;;;;;;;;;;;;-144.99;100.00;52656.00;5118371;27;19972;-65
2021/12/10 04:12:23;;;;;;;;;;;;;;;-144.99;100.00;52676.38;5130952;27;19972;-66
2021/12/10 04:14:51;;;;;;;;;;;;;;;-144.99;100.00;52649.88;5130894;27;20374;-66
2021/12/10 04:17:19;;;;;;;;;;;;;;;-144.99;100.00;52670.28;5126908;27;19976;-65
2021/12/10 04:19:45;;;;;;;;;;;;;;;-144.99;100.00;52680.47;5117217;27;20394;-65
2021/12/10 04:22:14;;;;;;;;;;;;;;;-144.99;100.00;52680.47;5125547;27;19972;-67
2021/12/10 04:24:42;;;;;;;;;;;;;;;-144.99;100.00;52664.16;5125122;27;19987;-66
2021/12/10 04:27:09;;;;;;;;;;;;;;;-144.99;100.00;52627.47;5127430;27;19972;-67
2021/12/10 04:29:36;;;;;;;;;;;;;;;-144.99;100.00;52692.69;5117075;27;20011;-67
2021/12/10 04:32:04;;;;;;;;;;;;;;;-144.99;100.00;52647.84;5119342;27;19976;-67
2021/12/10 04:34:31;;;;;;;;;;;;;;;-144.99;100.00;52668.22;5133382;27;20459;-66
2021/12/10 04:36:58;;;;;;;;;;;;;;;-144.99;100.00;52631.53;5122770;27;19976;-66
2021/12/10 04:39:27;;;;;;;;;;;;;;;-144.99;100.00;52713.09;5129730;27;20456;-66
2021/12/10 04:41:53;;;;;;;;;;;;;;;-144.99;100.00;52692.69;5124886;27;19976;-69
2021/12/10 04:44:20;;;;;;;;;;;;;;;-144.99;100.00;52647.84;5125537;27;20472;-69
2021/12/10 04:46:46;;;;;;;;;;;;;;;-144.99;100.00;52676.38;5124501;27;19972;-69
2021/12/10 04:49:15;;;;;;;;;;;;;;;-144.99;100.00;52704.94;5134023;27;19972;-73
2021/12/10 04:51:43;;;;;;;;;;;;;;;-144.99;100.00;52680.47;5143407;27;20048;-71
2021/12/10 04:54:10;;;;;;;;;;;;;;;-144.99;100.00;52651.94;5145447;27;20027;-72
2021/12/10 04:56:39;;;;;;;;;;;;;;;-144.99;100.00;52643.78;5150204;27;20011;-71
2021/12/10 04:59:07;;;;;;;;;;;;;;;-144.99;100.00;52684.53;5145140;27;20027;-69
2021/12/10 05:01:34;;;;;;;;;;;;;;;-144.99;100.00;52670.28;5136219;27;20005;-68
2021/12/10 05:04:01;;;;;;;;;;;;;;;-144.99;100.00;52668.22;5123355;27;19999;-68
2021/12/10 05:06:27;;;;;;;;;;;;;;;-144.99;100.00;52635.63;5126766;27;19972;-68
2021/12/10 05:08:54;;;;;;;;;;;;;;;-144.99;100.00;52664.16;5129469;27;19976;-67
2021/12/10 05:11:20;;;;;;;;;;;;;;;-144.99;100.00;52656.00;5120281;27;19983;-67
2021/12/10 05:13:48;;;;;;;;;;;;;;;-144.99;100.00;52631.53;5123906;27;19989;-67
2021/12/10 05:16:16;;;;;;;;;;;;;;;-144.99;100.00;52684.53;5129068;27;19975;-67
2021/12/10 05:18:45;;;;;;;;;;;;;;;-144.99;100.00;52684.53;5122082;27;19992;-67
2021/12/10 05:21:13;;;;;;;;;;;;;;;-144.99;100.00;52668.22;5118002;27;20003;-68
2021/12/10 05:23:39;;;;;;;;;;;;;;;-144.99;100.00;52639.69;5115062;27;19995;-67
2021/12/10 05:26:07;;;;;;;;;;;;;;;-144.99;100.00;52684.53;5124711;28;19979;-67
2021/12/10 05:28:34;;;;;;;;;;;;;;;-144.99;100.00;52717.16;5128709;28;19972;-68
2021/12/10 05:31:02;;;;;;;;;;;;;;;-144.99;100.00;52680.47;5129858;27;19980;-67
2021/12/10 05:33:29;;;;;;;;;;;;;;;-144.99;100.00;52643.78;5122666;27;19988;-68
2021/12/10 05:35:57;;;;;;;;;;;;;;;-144.99;100.00;52731.44;5126636;27;19979;-66
2021/12/10 05:38:23;;;;;;;;;;;;;;;-144.99;100.00;52631.53;5122719;28;19996;-67
2021/12/10 05:40:51;;;;;;;;;;;;;;;-144.99;100.00;52664.16;5129442;27;19972;-67
2021/12/10 05:43:17;;;;;;;;;;;;;;;-144.99;100.00;52656.00;5121474;28;20040;-65
2021/12/10 05:45:45;;;;;;;;;;;;;;;-144.99;100.00;52643.78;5121170;27;20413;-68
2021/12/10 05:48:13;;;;;;;;;;;;;;;-144.99;100.00;52684.53;5130145;27;20079;-66
2021/12/10 05:50:40;;;;;;;;;;;;;;;-144.99;100.00;52641.72;5128159;27;20013;-65
2021/12/10 05:53:07;;;;;;;;;;;;;;;-144.99;100.00;52694.72;5124109;27;19972;-70
2021/12/10 05:55:33;;;;;;;;;;;;;;;-144.99;100.00;52680.47;5119294;27;19979;-68
2021/12/10 05:58:00;;;;;;;;;;;;;;;-144.99;100.00;52668.22;5127709;27;20451;-65
2021/12/10 06:00:28;;;;;;;;;;;;;;;-144.99;100.00;52653.97;5129747;27;20415;-66
2021/12/10 06:02:55;;;;;;;;;;;;;;;-144.99;100.00;52676.38;5116353;28;20407;-66
2021/12/10 06:05:23;;;;;;;;;;;;;;;-144.99;100.00;52656.00;5131969;27;19972;-66
2021/12/10 06:07:50;;;;;;;;;;;;;;;-144.99;100.00;52643.78;4411726;27;10000829;-66
2021/12/10 06:10:18;;;;;;;;;;;;;;;-144.99;100.00;52653.97;5128370;27;19980;-67
2021/12/10 06:12:45;;;;;;;;;;;;;;;-144.99;100.00;52643.78;5126711;27;19980;-68
2021/12/10 06:15:13;;;;;;;;;;;;;;;-144.99;100.00;52664.16;5128048;27;19988;-66
2021/12/10 06:17:39;;;;;;;;;;;;;;;-144.99;100.00;52660.09;5126879;27;19980;-67
2021/12/10 06:20:07;;;;;;;;;;;;;;;-144.99;100.00;52709.00;5125106;27;20424;-67
2021/12/10 06:22:34;;;;;;;;;;;;;;;-144.99;100.00;52670.28;5125227;27;20507;-67
2021/12/10 06:25:01;;;;;;;;;;;;;;;-144.99;100.00;52678.44;5118266;27;19996;-68
2021/12/10 06:27:28;;;;;;;;;;;;;;;-144.99;100.00;52651.94;5125550;27;19983;-67
2021/12/10 06:29:54;;;;;;;;;;;;;;;-144.99;100.00;52688.63;5114842;27;19977;-67
2021/12/10 06:32:20;;;;;;;;;;;;;;;-144.99;100.00;52651.94;5124555;27;19972;-67
2021/12/10 06:34:47;;;;;;;;;;;;;;;-144.99;100.00;52639.69;5122727;27;19964;-68
2021/12/10 06:37:13;;;;;;;;;;;;;;;-144.99;100.00;52676.38;5122123;27;19976;-68
2021/12/10 06:39:41;;;;;;;;;;;;;;;-144.99;100.00;52651.94;5124954;27;19998;-69
2021/12/10 06:42:07;;;;;;;;;;;;;;;-144.99;100.00;52662.13;5132079;27;19976;-67
2021/12/10 06:44:34;;;;;;;;;;;;;;;-144.99;100.00;52651.94;5127007;27;20297;-68
2021/12/10 06:47:04;;;;;;;;;;;;;;;-144.99;100.00;52647.84;5130225;27;19980;-67
2021/12/10 06:49:31;;;;;;;;;;;;;;;-144.99;100.00;52649.88;5127955;27;20394;-68
2021/12/10 06:51:57;;;;;;;;;;;;;;;-144.99;100.00;52656.00;5128369;27;19972;-70
2021/12/10 06:54:24;;;;;;;;;;;;;;;-144.99;100.00;52684.53;5119042;27;19992;-69
2021/12/10 06:56:52;;;;;;;;;;;;;;;-144.99;100.00;52639.69;5128009;27;20402;-68
2021/12/10 06:59:19;;;;;;;;;;;;;;;-144.99;100.00;52658.03;5126913;27;20006;-69
2021/12/10 07:01:45;;;;;;;;;;;;;;;-144.99;100.00;52672.31;5122790;27;19984;-68
2021/12/10 07:04:13;;;;;;;;;;;;;;;-144.99;100.00;52635.63;5128175;27;19992;-68
2021/12/10 07:06:40;;;;;;;;;;;;;;;-144.99;100.00;52651.94;5121332;27;20368;-68
2021/12/10 07:09:08;;;;;;;;;;;;;;;-144.99;100.00;52649.88;5127503;27;20051;-68
2021/12/10 07:11:35;;;;;;;;;;;;;;;-144.99;100.00;52653.97;5119802;27;19979;-68
2021/12/10 07:14:03;;;;;;;;;;;;;;;-144.99;100.00;52656.00;5121816;27;19996;-67
2021/12/10 07:16:30;;;;;;;;;;;;;;;-144.99;100.00;52656.00;5121854;27;19983;-67
2021/12/10 07:18:58;;;;;;;;;;;;;;;-144.99;100.00;52676.38;5119577;27;19992;-67
2021/12/10 07:21:26;;;;;;;;;;;;;;;-144.99;100.00;52690.66;5124327;27;19976;-66
2021/12/10 07:23:52;;;;;;;;;;;;;;;-144.99;100.00;52637.66;5128272;27;20047;-67
2021/12/10 07:26:19;;;;;;;;;;;;;;;-144.99;100.00;52676.38;5126475;27;20074;-67
2021/12/10 07:28:45;;;;;;;;;;;;;;;-144.99;100.00;52713.09;5122838;27;19979;-68
2021/12/10 07:31:14;;;;;;;;;;;;;;;-144.99;100.00;52668.22;5112508;27;19973;-69
2021/12/10 07:33:41;;;;;;;;;;;;;;;-144.99;100.00;52656.00;5118237;27;19992;-67
2021/12/10 07:36:08;;;;;;;;;;;;;;;-144.99;100.00;52664.16;5118831;27;20075;-69
2021/12/10 07:38:35;;;;;;;;;;;;;;;-144.99;100.00;52680.47;5114719;27;20083;-67
2021/12/10 07:41:02;;;;;;;;;;;;;;;-144.99;100.00;52647.84;5122080;27;20007;-67
2021/12/10 07:43:29;;;;;;;;;;;;;;;-144.99;100.00;52656.00;5122352;27;20023;-67
2021/12/10 07:45:55;;;;;;;;;;;;;;;-144.99;100.00;52656.00;5127981;27;20379;-67
2021/12/10 07:48:26;;;;;;;;;;;;;;;-144.99;100.00;52647.84;5120490;27;19976;-68
2021/12/10 07:50:56;;;;;;;;;;;;;;;-144.99;100.00;52651.94;5126718;27;19971;-67
2021/12/10 07:53:22;;;;;;;;;;;;;;;-144.99;100.00;52688.63;5123610;27;20045;-68
2021/12/10 07:55:49;;;;;;;;;;;;;;;-144.99;100.00;52668.22;5119492;27;19975;-67
2021/12/10 07:58:19;;;;;;;;;;;;;;;-144.99;100.00;52619.31;5122541;27;20003;-66
2021/12/10 08:00:47;;;;;;;;;;;;;;;-144.99;100.00;52635.63;5120543;27;20078;-66
2021/12/10 08:03:13;;;;;;;;;;;;;;;-144.99;100.00;52684.53;5128533;27;20079;-66
2021/12/10 08:05:41;;;;;;;;;;;;;;;-144.99;100.00;52688.63;5123878;27;19976;-66
2021/12/10 08:08:09;;;;;;;;;;;;;;;-144.99;100.00;52651.94;5117574;27;20452;-69
2021/12/10 08:10:35;;;;;;;;;;;;;;;-144.99;100.00;52721.22;5140330;27;19975;-67
2021/12/10 08:13:02;;;;;;;;;;;;;;;-144.99;100.00;52656.00;5143999;27;19976;-67
2021/12/10 08:15:28;;;;;;;;;;;;;;;-144.99;100.00;52664.16;5140328;27;20000;-67
2021/12/10 08:17:55;;;;;;;;;;;;;;;-144.99;100.00;52653.97;5142399;27;19976;-68
2021/12/10 08:20:23;;;;;;;;;;;;;;;-144.99;100.00;52680.47;5132361;27;19960;-66
2021/12/10 08:22:52;;;;;;;;;;;;;;;-144.99;100.00;52656.00;5128847;27;20007;-66
2021/12/10 08:25:19;;;;;;;;;;;;;;;-144.99;100.00;52676.38;5122436;27;20189;-67
2021/12/10 08:27:46;;;;;;;;;;;;;;;-144.99;100.00;52639.69;5123920;27;20172;-67
2021/12/10 08:30:14;;;;;;;;;;;;;;;-144.99;100.00;52668.22;5116190;27;19980;-67
2021/12/10 08:32:41;;;;;;;;;;;;;;;-144.99;100.00;52643.78;5120967;27;19976;-66
2021/12/10 08:35:09;;;;;;;;;;;;;;;-144.99;100.00;52660.09;5119102;27;20010;-67
2021/12/10 08:37:35;;;;;;;;;;;;;;;-144.99;100.00;52660.09;5121232;27;19972;-67
2021/12/10 08:40:04;;;;;;;;;;;;;;;-144.99;100.00;52688.63;5119872;27;19996;-68
2021/12/10 08:42:30;;;;;;;;;;;;;;;-144.99;100.00;52664.16;5115370;27;19982;-66
2021/12/10 08:44:57;;;;;;;;;;;;;;;-144.99;100.00;52682.50;5128986;27;20403;-66
2021/12/10 08:47:23;;;;;;;;;;;;;;;-144.99;100.00;52704.94;5128238;27;19979;-66
2021/12/10 08:49:50;;;;;;;;;;;;;;;-144.99;100.00;52676.38;5118668;27;19976;-69
2021/12/10 08:52:18;;;;;;;;;;;;;;;-144.99;100.00;52676.38;5122883;27;19972;-66
2021/12/10 08:54:44;;;;;;;;;;;;;;;-144.99;100.00;52658.03;5116332;27;19992;-66
2021/12/10 08:57:12;;;;;;;;;;;;;;;-144.99;100.00;52666.19;5121261;27;20273;-66
2021/12/10 08:59:39;;;;;;;;;;;;;;;-144.99;100.00;52678.44;5116402;27;20549;-67
2021/12/10 09:02:08;;;;;;;;;;;;;;;-144.99;100.00;52660.09;5122233;27;19976;-67
2021/12/10 09:04:35;;;;;;;;;;;;;;;-144.99;100.00;52660.09;5119141;27;20038;-67
2021/12/10 09:07:04;;;;;;;;;;;;;;;-144.99;100.00;52664.16;5122201;27;20356;-67
2021/12/10 09:09:31;;;;;;;;;;;;;;;-144.99;100.00;52643.78;5117875;27;19983;-68
2021/12/10 09:11:59;;;;;;;;;;;;;;;-144.99;100.00;52690.66;5112696;27;20554;-70
2021/12/10 09:14:30;;;;;;;;;;;;;;;-144.99;100.00;52668.22;5120965;27;20360;-72
2021/12/10 09:16:57;;;;;;;;;;;;;;;-144.99;100.00;52678.44;5120679;27;20444;-73
2021/12/10 09:19:24;;;;;;;;;;;;;;;-144.99;100.00;52670.28;5118800;27;20383;-73
2021/12/10 09:21:51;;;;;;;;;;;;;;;-144.99;100.00;52633.59;5124973;27;20463;-73
2021/12/10 09:24:18;;;;;;;;;;;;;;;-144.99;100.00;52651.94;5120918;27;20434;-73
2021/12/10 09:26:46;;;;;;;;;;;;;;;-144.99;100.00;52670.28;5120056;27;20137;-72
2021/12/10 09:29:15;;;;;;;;;;;;;;;-144.99;100.00;52690.66;5121689;27;19979;-73
2021/12/10 09:31:44;;;;;;;;;;;;;;;-144.99;100.00;52700.84;5116289;28;20225;-72
2021/12/10 09:34:11;;;;;;;;;;;;;;;-144.99;100.00;52668.22;5112646;27;20398;-72
2021/12/10 09:36:38;;;;;;;;;;;;;;;-144.99;100.00;52658.03;5117461;27;20468;-71
2021/12/10 09:39:06;;;;;;;;;;;;;;;-144.99;100.00;52639.69;5125375;27;20027;-72
2021/12/10 09:41:32;;;;;;;;;;;;;;;-144.99;100.00;52639.69;5117924;27;19999;-72
2021/12/10 09:43:58;;;;;;;;;;;;;;;-144.99;100.00;52690.66;5127536;27;19995;-71
2021/12/10 09:46:25;;;;;;;;;;;;;;;-144.99;100.00;52660.09;5119170;27;19972;-72
2021/12/10 09:48:53;;;;;;;;;;;;;;;-144.99;100.00;52713.09;5125829;27;20343;-71
2021/12/10 09:51:23;;;;;;;;;;;;;;;-144.99;100.00;52627.47;5119154;27;20022;-73
2021/12/10 09:53:51;;;;;;;;;;;;;;;-144.99;100.00;52668.22;5125340;27;20375;-73
2021/12/10 09:56:18;;;;;;;;;;;;;;;-144.99;100.00;52704.94;5129536;27;20078;-73
2021/12/10 09:58:45;;;;;;;;;;;;;;;-144.99;100.00;52678.44;5120010;27;19976;-73
2021/12/10 10:01:14;;;;;;;;;;;;;;;-144.99;100.00;52641.72;5140785;27;19988;-74
2021/12/10 10:03:41;;;;;;;;;;;;;;;-144.99;100.00;52678.44;5136286;27;20056;-73
2021/12/10 10:06:11;;;;;;;;;;;;;;;-144.99;100.00;52664.16;5147119;27;19976;-73
2021/12/10 10:08:37;;;;;;;;;;;;;;;-144.99;100.00;52688.63;5135229;27;19980;-73
2021/12/10 10:11:06;;;;;;;;;;;;;;;-144.99;100.00;52643.78;5143582;27;20060;-73
2021/12/10 10:13:35;;;;;;;;;;;;;;;-144.99;100.00;52684.53;5144206;27;20383;-73
2021/12/10 10:16:02;;;;;;;;;;;;;;;-144.99;100.00;52668.22;5144791;27;19986;-74
2021/12/10 10:18:30;;;;;;;;;;;;;;;-144.99;100.00;52664.16;5140260;27;19983;-72
2021/12/10 10:20:59;;;;;;;;;;;;;;;-144.99;100.00;52631.53;5127784;27;19992;-73
2021/12/10 10:23:27;;;;;;;;;;;;;;;-144.99;100.00;52647.84;5128545;27;19988;-74
2021/12/10 10:25:56;;;;;;;;;;;;;;;-144.99;100.00;52684.53;5130770;27;19976;-73
2021/12/10 10:28:23;;;;;;;;;;;;;;;-144.99;100.00;52656.00;5129390;27;19976;-73
2021/12/10 10:30:56;;;;;;;;;;;;;;;-144.99;100.00;52635.63;5123342;27;20457;-73
2021/12/10 10:33:23;;;;;;;;;;;;;;;-144.99;100.00;52651.94;5128360;27;19995;-73
2021/12/10 10:35:50;;;;;;;;;;;;;;;-144.99;100.00;52615.25;5126236;27;20000;-73
2021/12/10 10:38:17;;;;;;;;;;;;;;;-144.99;99.62;52635.63;5123966;27;19975;-73
2021/12/10 10:40:48;;;;;;;;;;;;;;;-144.99;99.62;52680.47;5126166;27;20484;-72
2021/12/10 10:43:15;;;;;;;;;;;;;;;-144.99;99.41;52651.94;5121261;27;20355;-73
2021/12/10 10:45:44;;;;;;;;;;;;;;;-144.99;98.68;52643.78;5124503;27;20432;-73
2021/12/10 10:48:12;;;;;;;;;;;;;;;-144.99;98.46;52647.84;5126612;27;19998;-73
2021/12/10 10:50:39;;;;;;;;;;;;;;;-144.99;97.96;52660.09;5121519;27;19982;-73
2021/12/10 10:53:08;;;;;;;;;;;;;;;-144.99;97.04;52643.78;5127393;27;20034;-72
2021/12/10 10:55:36;;;;;;;;;;;;;;;-144.99;97.15;52643.78;5140706;27;19972;-73
2021/12/10 10:58:07;;;;;;;;;;;;;;;-144.99;96.80;52668.22;5142561;27;20855;-74
2021/12/10 11:00:43;;;;;;;;;;;;;;;-144.99;96.09;52623.38;5143283;27;20059;-77
2021/12/10 11:03:13;;;;;;;;;;;;;;;-144.99;96.56;52627.47;5140337;27;19980;-74
2021/12/10 11:05:45;;;;;;;;;;;;;;;-144.99;96.08;52639.69;5134216;27;20477;-73
2021/12/10 11:08:11;;;;;;;;;;;;;;;-144.99;95.70;52662.13;5123868;27;19972;-74
2021/12/10 11:10:40;;;;;;;;;;;;;;;-144.99;95.29;52627.47;5136352;27;19976;-74
2021/12/10 11:13:14;;;;;;;;;;;;;;;-144.99;94.90;52629.50;5136633;27;19960;-74
2021/12/10 11:15:41;;;;;;;;;;;;;;;-144.99;96.11;52623.38;5136510;27;20039;-73
2021/12/10 11:18:14;;;;;;;;;;;;;;;-144.99;95.30;52660.09;5132790;27;19979;-73
2021/12/10 11:20:42;;;;;;;;;;;;;;;-144.99;95.02;52635.63;5124263;27;19987;-73
2021/12/10 11:23:10;;;;;;;;;;;;;;;-144.99;93.31;52627.47;5134427;27;20038;-73
2021/12/10 11:25:38;;;;;;;;;;;;;;;-144.99;92.62;52627.47;5132042;27;19972;-73
2021/12/10 11:28:07;;;;;;;;;;;;;;;-144.99;93.57;52627.47;5121769;27;20424;-72
2021/12/10 11:30:35;;;;;;;;;;;;;;;-144.99;92.21;52639.69;5124389;27;20059;-73
2021/12/10 11:33:09;;;;;;;;;;;;;;;-144.99;91.69;52635.63;5129438;27;19976;-73
2021/12/10 11:35:37;;;;;;;;;;;;;;;-144.99;92.00;52668.22;5117876;27;19972;-73
2021/12/10 11:38:05;;;;;;;;;;;;;;;-144.99;91.42;52631.53;5114355;27;19984;-73
2021/12/10 11:40:35;;;;;;;;;;;;;;;-144.99;91.50;52631.53;5127094;27;19991;-73
2021/12/10 11:43:15;;;;;;;;;;;;;;;-144.99;91.00;52658.03;5120662;27;20452;-73
2021/12/10 11:45:51;;;;;;;;;;;;;;;-144.99;90.43;52635.63;5124422;27;19988;-72
2021/12/10 11:48:22;;;;;;;;;;;;;;;-144.99;90.42;52643.78;5123792;27;20487;-74
2021/12/10 11:50:58;;;;;;;;;;;;;;;-144.99;90.36;52676.38;5121692;27;19980;-74
2021/12/10 11:53:24;;;;;;;;;;;;;;;-144.99;90.64;52668.22;5128978;27;20519;-75
2021/12/10 11:55:55;;;;;;;;;;;;;;;-144.99;90.04;52621.34;5134737;27;20531;-72
2021/12/10 11:58:22;;;;;;;;;;;;;;;-144.99;90.64;52643.78;5116349;27;19987;-72
2021/12/10 12:00:50;;;;;;;;;;;;;;;-144.99;91.31;52639.69;5126897;27;20014;-72
2021/12/10 12:03:16;;;;;;;;;;;;;;;-144.99;90.86;52631.53;5115716;27;19991;-73
2021/12/10 12:05:44;;;;;;;;;;;;;;;-144.99;90.87;52639.69;5123439;27;19972;-71
2021/12/10 12:08:11;;;;;;;;;;;;;;;-144.99;90.56;52649.88;5120905;27;20005;-72
2021/12/10 12:10:40;;;;;;;;;;;;;;;-144.99;90.16;52623.38;5125893;27;19975;-72
2021/12/10 12:13:12;;;;;;;;;;;;;;;-144.99;89.99;52603.00;5126496;27;20441;-72
2021/12/10 12:15:39;;;;;;;;;;;;;;;-144.99;90.07;52639.69;5124695;27;19976;-74
2021/12/10 12:18:08;;;;;;;;;;;;;;;-144.99;90.92;52664.16;5133110;27;20005;-73
2021/12/10 12:20:37;;;;;;;;;;;;;;;-144.99;90.37;52672.31;5136240;27;19996;-74
2021/12/10 12:25:50;;;;;;;;;;;;;;;-144.99;91.12;52668.22;5135535;27;20055;-73
2021/12/10 12:28:17;;;;;;;;;;;;;;;-144.99;90.70;52651.94;5135902;27;20058;-74
2021/12/10 12:31:05;;;;;;;;;;;;;;;-144.99;91.02;52656.00;5145420;27;19972;-73
2021/12/10 12:33:34;;;;;;;;;;;;;;;-144.99;90.24;52647.84;5135042;27;20047;-73